Time;durP1;ratioP1;P1;durP2;ratioP2;P2;SDS_P1;SDS_P2;PMS_P1;PMS_P2;Temp;Humidity;BMP_temperature;BMP_pressure;BME280_temperature;BME280_humidity;BME280_pressure;Samples;Min_cycle;Max_cycle;Signal;HPM_P1;HPM_P2
2022/05/31 00:01:14;;;;;;;3.13;0.00;;;15.70;99.90;;;;;;5032279;28;20659;-68
2022/05/31 00:03:41;;;;;;;2.30;0.00;;;15.80;99.90;;;;;;5020100;28;20030;-67
2022/05/31 00:06:08;;;;;;;1.08;0.10;;;15.90;99.90;;;;;;5024167;28;20025;-68
2022/05/31 00:08:36;;;;;;;1.33;0.10;;;15.80;99.90;;;;;;5021504;28;20029;-67
2022/05/31 00:11:03;;;;;;;0.10;0.00;;;15.60;99.90;;;;;;5027052;28;20072;-68
2022/05/31 00:13:31;;;;;;;1.05;0.10;;;15.80;99.90;;;;;;5029102;28;20034;-67
2022/05/31 00:15:58;;;;;;;0.20;0.10;;;15.80;99.90;;;;;;5026132;28;20036;-67
2022/05/31 00:18:25;;;;;;;0.25;0.00;;;15.70;99.90;;;;;;5020205;28;20084;-69
2022/05/31 00:20:53;;;;;;;0.10;0.03;;;15.70;99.90;;;;;;5024478;28;20021;-67
2022/05/31 00:23:21;;;;;;;0.43;0.00;;;15.70;99.90;;;;;;5020919;28;20026;-67
2022/05/31 00:25:48;;;;;;;0.10;0.00;;;15.80;99.90;;;;;;5025430;28;20033;-67
2022/05/31 00:28:15;;;;;;;3.25;0.10;;;15.80;99.90;;;;;;5024658;28;20085;-67
2022/05/31 00:30:43;;;;;;;0.03;0.00;;;15.70;99.90;;;;;;5014499;28;20033;-67
2022/05/31 00:33:10;;;;;;;0.13;0.10;;;15.80;99.90;;;;;;5023920;28;20055;-67
2022/05/31 00:35:41;;;;;;;0.00;0.00;;;15.90;99.90;;;;;;5022030;28;20032;-67
2022/05/31 00:38:09;;;;;;;1.25;0.10;;;15.80;99.90;;;;;;5018743;28;20037;-67
2022/05/31 00:40:37;;;;;;;0.52;0.00;;;15.80;99.90;;;;;;5020532;28;20033;-67
2022/05/31 00:43:16;;;;;;;2.22;0.10;;;15.90;99.90;;;;;;5016115;28;20026;-67
2022/05/31 00:46:03;;;;;;;1.00;0.00;;;15.80;99.90;;;;;;5014710;28;20041;-67
2022/05/31 00:48:51;;;;;;;2.33;0.10;;;16.00;99.90;;;;;;5017498;28;20026;-67
2022/05/31 00:51:20;;;;;;;1.75;0.10;;;16.00;99.90;;;;;;5016449;28;20026;-67
2022/05/31 00:53:55;;;;;;;0.63;0.00;;;16.10;99.90;;;;;;5014157;28;20129;-67
2022/05/31 00:56:26;;;;;;;5.97;0.13;;;16.10;99.90;;;;;;5017085;28;20014;-67
2022/05/31 00:58:57;;;;;;;1.60;0.10;;;16.00;99.90;;;;;;5025565;28;20061;-67
2022/05/31 01:01:25;;;;;;;3.83;0.30;;;15.90;99.90;;;;;;5014950;28;20068;-66
2022/05/31 01:03:52;;;;;;;2.63;0.10;;;16.00;99.90;;;;;;5026954;28;20084;-67
2022/05/31 01:06:19;;;;;;;0.10;0.00;;;16.00;99.90;;;;;;5021847;28;20057;-67
2022/05/31 01:08:47;;;;;;;1.00;0.10;;;16.00;99.90;;;;;;5021034;28;20053;-67
2022/05/31 01:11:21;;;;;;;1.17;0.10;;;16.10;99.90;;;;;;5016169;28;20033;-67
2022/05/31 01:13:49;;;;;;;1.58;0.05;;;16.20;99.90;;;;;;5030702;28;20030;-67
2022/05/31 01:16:17;;;;;;;0.75;0.10;;;16.20;99.90;;;;;;5028869;28;20038;-67
2022/05/31 01:18:44;;;;;;;1.33;0.00;;;16.20;99.90;;;;;;5020590;28;20121;-68
2022/05/31 01:21:11;;;;;;;1.00;0.20;;;16.30;99.90;;;;;;5016122;28;20037;-67
2022/05/31 01:24:20;;;;;;;0.22;0.10;;;16.20;99.90;;;;;;5017427;28;20056;-67
2022/05/31 01:27:05;;;;;;;1.30;0.10;;;16.30;99.90;;;;;;5028346;28;20068;-67
2022/05/31 01:29:37;;;;;;;1.25;0.00;;;16.40;99.90;;;;;;5015826;28;20033;-66
2022/05/31 01:32:07;;;;;;;0.10;0.10;;;16.40;99.90;;;;;;5023548;28;20109;-67
2022/05/31 01:34:49;;;;;;;1.10;0.10;;;16.40;99.90;;;;;;5021322;28;20017;-67
2022/05/31 01:37:16;;;;;;;0.40;0.00;;;16.50;99.90;;;;;;5021600;28;20156;-67
2022/05/31 01:39:52;;;;;;;0.80;0.05;;;16.60;99.90;;;;;;5018076;28;20025;-67
2022/05/31 01:42:40;;;;;;;0.73;0.00;;;16.60;99.90;;;;;;5016500;28;20037;-67
2022/05/31 01:45:19;;;;;;;0.10;0.00;;;16.50;99.90;;;;;;5013295;28;20030;-68
2022/05/31 01:47:46;;;;;;;1.45;0.28;;;16.80;99.90;;;;;;5024727;28;20509;-68
2022/05/31 01:50:18;;;;;;;0.85;0.10;;;16.90;99.90;;;;;;5024030;28;20037;-67
2022/05/31 01:52:49;;;;;;;0.95;0.10;;;16.70;99.90;;;;;;5025297;28;20140;-67
2022/05/31 01:55:26;;;;;;;6.55;0.10;;;16.80;99.90;;;;;;5058098;27;20403;-66
2022/05/31 01:57:59;;;;;;;3.78;0.10;;;17.00;99.90;;;;;;5049911;28;20087;-66
2022/05/31 02:00:27;;;;;;;3.53;0.00;;;17.00;99.90;;;;;;5042290;28;20441;-66
2022/05/31 02:02:59;;;;;;;0.32;0.08;;;16.90;99.90;;;;;;5047797;28;20035;-67
2022/05/31 02:05:27;;;;;;;1.23;0.05;;;16.90;99.70;;;;;;5040413;28;20024;-67
2022/05/31 02:08:03;;;;;;;0.05;0.00;;;17.00;99.90;;;;;;5041753;28;20098;-67
2022/05/31 02:10:34;;;;;;;2.78;0.10;;;17.00;99.30;;;;;;5046163;28;20056;-67
2022/05/31 02:13:01;;;;;;;1.55;0.10;;;17.10;99.00;;;;;;5039389;28;20040;-67
2022/05/31 02:15:29;;;;;;;1.13;0.00;;;17.30;98.60;;;;;;5052162;28;20049;-67
2022/05/31 02:17:56;;;;;;;1.70;0.10;;;17.50;98.90;;;;;;5041423;28;20025;-67
2022/05/31 02:20:23;;;;;;;0.85;0.10;;;17.30;99.10;;;;;;5037364;28;20056;-68
2022/05/31 02:22:51;;;;;;;2.67;0.10;;;17.30;99.00;;;;;;5030350;28;20022;-68
2022/05/31 02:25:19;;;;;;;1.05;0.10;;;17.30;99.10;;;;;;5040518;28;20086;-68
2022/05/31 02:27:46;;;;;;;0.60;0.00;;;17.00;99.00;;;;;;5031201;28;20033;-67
2022/05/31 02:30:14;;;;;;;0.60;0.22;;;17.10;99.20;;;;;;5031812;28;20076;-67
2022/05/31 02:32:42;;;;;;;2.63;0.10;;;17.40;99.00;;;;;;5045427;28;20124;-67
2022/05/31 02:35:10;;;;;;;1.15;0.00;;;17.20;98.30;;;;;;5030073;28;20029;-67
2022/05/31 02:37:38;;;;;;;0.65;0.13;;;17.10;99.20;;;;;;5029162;28;20041;-67
2022/05/31 02:40:07;;;;;;;0.88;0.10;;;17.40;99.30;;;;;;5028793;28;20036;-67
2022/05/31 02:42:36;;;;;;;0.38;0.00;;;17.10;98.90;;;;;;5040514;28;20077;-67
2022/05/31 02:45:14;;;;;;;1.25;0.10;;;17.50;98.80;;;;;;5050979;28;20083;-67
2022/05/31 02:47:41;;;;;;;0.38;0.10;;;17.00;98.70;;;;;;5044079;28;20359;-66
2022/05/31 02:50:09;;;;;;;3.08;0.28;;;16.70;98.80;;;;;;5055414;28;20032;-66
2022/05/31 02:52:36;;;;;;;2.30;0.10;;;16.30;99.40;;;;;;5030810;28;20040;-67
2022/05/31 02:55:04;;;;;;;0.20;0.00;;;16.00;99.60;;;;;;5040122;28;20037;-67
2022/05/31 02:57:31;;;;;;;0.65;0.10;;;15.90;99.90;;;;;;5040571;28;20451;-66
2022/05/31 02:59:59;;;;;;;0.77;0.10;;;16.10;99.10;;;;;;5032109;28;20183;-66
2022/05/31 03:02:26;;;;;;;0.57;0.03;;;16.30;99.10;;;;;;5040757;28;20043;-67
2022/05/31 03:04:53;;;;;;;0.17;0.00;;;16.20;99.20;;;;;;5041776;28;20037;-67
2022/05/31 03:07:21;;;;;;;2.70;0.25;;;16.30;99.20;;;;;;5036643;28;20032;-67
2022/05/31 03:09:48;;;;;;;0.10;0.00;;;16.40;99.10;;;;;;5025246;28;20366;-67
2022/05/31 03:12:18;;;;;;;2.30;0.10;;;16.10;99.30;;;;;;5015627;28;20394;-67
2022/05/31 03:14:45;;;;;;;1.42;0.00;;;16.30;99.20;;;;;;5032601;28;20034;-67
2022/05/31 03:17:26;;;;;;;0.95;0.00;;;16.20;99.40;;;;;;5030487;28;20025;-67
2022/05/31 03:20:11;;;;;;;0.00;0.00;;;16.30;99.90;;;;;;5024849;28;20042;-67
2022/05/31 03:22:44;;;;;;;0.65;0.10;;;15.90;99.80;;;;;;5031594;28;20470;-67
2022/05/31 03:25:23;;;;;;;1.02;0.00;;;16.00;99.90;;;;;;5024016;28;20052;-67
2022/05/31 03:27:55;;;;;;;0.00;0.00;;;16.00;99.90;;;;;;5024805;28;20144;-68
2022/05/31 03:30:22;;;;;;;0.65;0.10;;;16.10;99.90;;;;;;5023821;28;20686;-67
2022/05/31 03:32:50;;;;;;;0.10;0.00;;;16.00;99.90;;;;;;5017997;28;20025;-67
2022/05/31 03:35:18;;;;;;;2.63;0.00;;;15.80;99.90;;;;;;5029027;28;20042;-67
2022/05/31 03:37:45;;;;;;;0.03;0.00;;;15.80;99.60;;;;;;5036912;28;20018;-67
2022/05/31 03:40:56;;;;;;;0.10;0.10;;;16.00;99.90;;;;;;5041207;28;20039;-67
2022/05/31 03:43:02;;;;;;;0.32;0.00;;;15.80;99.90;;;;;;5039573;28;20033;-67
2022/05/31 03:45:34;;;;;;;0.10;0.00;;;15.80;99.90;;;;;;5014748;28;20029;-68
2022/05/31 03:48:02;;;;;;;1.55;0.20;;;15.80;99.90;;;;;;5029290;28;20034;-67
2022/05/31 03:50:29;;;;;;;0.50;0.00;;;15.90;99.90;;;;;;5039489;28;20524;-67
2022/05/31 03:52:56;;;;;;;2.05;0.10;;;16.00;99.70;;;;;;5035684;28;20071;-68
2022/05/31 03:55:23;;;;;;;0.65;0.00;;;15.90;99.90;;;;;;5025064;28;20532;-67
2022/05/31 03:57:52;;;;;;;2.63;0.30;;;15.50;99.90;;;;;;5029133;28;20525;-67
2022/05/31 04:00:20;;;;;;;0.63;0.00;;;15.30;99.90;;;;;;5041402;28;20501;-67
2022/05/31 04:02:48;;;;;;;0.30;0.10;;;15.10;99.90;;;;;;5022947;28;20116;-67
2022/05/31 04:05:15;;;;;;;0.65;0.08;;;15.10;99.90;;;;;;5031218;28;20033;-67
2022/05/31 04:07:42;;;;;;;1.38;0.28;;;15.00;99.90;;;;;;5029468;28;20112;-67
2022/05/31 04:10:11;;;;;;;0.88;0.10;;;15.20;99.90;;;;;;5034052;28;20037;-67
2022/05/31 04:12:39;;;;;;;1.65;0.10;;;15.50;99.90;;;;;;5019933;28;20018;-67
2022/05/31 04:15:07;;;;;;;1.52;0.17;;;15.60;99.90;;;;;;5029498;28;20493;-67
2022/05/31 04:17:34;;;;;;;0.57;0.10;;;15.60;99.90;;;;;;5012614;28;20150;-66
2022/05/31 04:20:01;;;;;;;0.82;0.13;;;15.60;99.90;;;;;;5021101;28;20556;-67
2022/05/31 04:22:29;;;;;;;1.33;0.08;;;15.60;99.90;;;;;;5026181;28;20025;-67
2022/05/31 04:25:00;;;;;;;3.83;0.20;;;15.30;99.90;;;;;;5018271;28;20046;-66
2022/05/31 04:27:29;;;;;;;0.75;0.00;;;15.30;99.90;;;;;;5022113;28;20026;-67
2022/05/31 04:29:56;;;;;;;0.90;0.00;;;15.20;99.90;;;;;;5022542;28;20026;-67
2022/05/31 04:32:24;;;;;;;0.25;0.10;;;15.10;99.90;;;;;;5020236;28;20021;-67
2022/05/31 04:34:52;;;;;;;0.25;0.05;;;15.00;99.90;;;;;;5014157;28;20037;-67
2022/05/31 04:37:20;;;;;;;0.95;0.10;;;14.70;99.90;;;;;;5029299;28;20028;-67
2022/05/31 04:39:48;;;;;;;1.15;0.13;;;14.50;99.90;;;;;;5032066;28;20072;-65
2022/05/31 04:42:16;;;;;;;0.28;0.05;;;14.40;99.90;;;;;;5020335;28;20101;-65
2022/05/31 04:44:43;;;;;;;0.28;0.10;;;14.30;99.90;;;;;;5037747;28;20397;-65
2022/05/31 04:47:11;;;;;;;0.15;0.08;;;14.20;99.90;;;;;;5039576;28;20033;-65
2022/05/31 04:49:38;;;;;;;0.77;0.10;;;14.20;99.90;;;;;;5019582;28;20026;-65
2022/05/31 04:52:06;;;;;;;0.05;0.00;;;14.20;99.90;;;;;;5022563;28;20076;-65
2022/05/31 04:54:33;;;;;;;0.28;0.10;;;14.20;99.90;;;;;;5038439;28;20041;-65
2022/05/31 04:57:00;;;;;;;0.30;0.00;;;14.10;99.90;;;;;;5016922;28;20072;-65
2022/05/31 04:59:28;;;;;;;0.57;0.00;;;14.20;99.90;;;;;;5020355;28;20029;-65
2022/05/31 05:01:55;;;;;;;0.77;0.10;;;14.20;99.90;;;;;;5016125;28;20026;-65
2022/05/31 05:04:22;;;;;;;1.80;0.10;;;14.20;99.90;;;;;;5017968;28;20107;-65
2022/05/31 05:06:50;;;;;;;1.80;0.15;;;14.30;99.90;;;;;;5028583;28;20061;-65
2022/05/31 05:09:17;;;;;;;1.33;0.30;;;14.50;99.90;;;;;;5022116;28;20080;-65
2022/05/31 05:11:46;;;;;;;0.85;0.25;;;14.80;99.90;;;;;;5022884;28;20013;-64
2022/05/31 05:14:13;;;;;;;1.42;0.40;;;15.10;99.90;;;;;;5031919;28;20040;-65
2022/05/31 05:16:41;;;;;;;1.58;0.22;;;15.10;99.90;;;;;;5032957;28;20034;-65
2022/05/31 05:19:12;;;;;;;2.13;0.20;;;14.70;99.90;;;;;;5025056;28;20018;-65
2022/05/31 05:21:40;;;;;;;0.30;0.03;;;14.60;99.90;;;;;;5028183;28;20525;-64
2022/05/31 05:24:07;;;;;;;0.82;0.20;;;14.50;99.90;;;;;;5021032;28;20025;-64
2022/05/31 05:26:36;;;;;;;1.50;0.20;;;14.30;99.90;;;;;;5034544;28;20092;-65
2022/05/31 05:31:52;;;;;;;0.25;0.10;;;14.10;99.90;;;;;;5019065;28;20130;-65
2022/05/31 05:34:20;;;;;;;0.10;0.00;;;14.00;99.90;;;;;;5021832;28;20068;-65
2022/05/31 05:36:47;;;;;;;0.45;0.10;;;14.00;99.90;;;;;;5020405;28;20486;-65
2022/05/31 05:39:15;;;;;;;2.60;0.28;;;13.90;99.90;;;;;;5018831;28;20548;-65
2022/05/31 05:41:42;;;;;;;0.85;0.10;;;13.80;99.90;;;;;;5024335;28;20473;-65
2022/05/31 05:44:10;;;;;;;0.52;0.20;;;13.80;99.90;;;;;;5019753;28;20017;-65
2022/05/31 05:46:37;;;;;;;1.30;0.10;;;13.50;99.90;;;;;;5019702;28;20116;-66
2022/05/31 05:49:05;;;;;;;0.75;0.10;;;13.10;99.90;;;;;;5025518;28;20055;-65
2022/05/31 05:51:33;;;;;;;0.63;0.10;;;12.70;99.90;;;;;;5015409;28;20030;-66
2022/05/31 05:54:02;;;;;;;0.73;0.20;;;12.60;99.90;;;;;;5014328;28;20050;-65
2022/05/31 05:56:30;;;;;;;0.43;0.13;;;12.50;99.90;;;;;;5013287;28;20034;-66
2022/05/31 05:58:58;;;;;;;1.73;0.20;;;12.20;99.90;;;;;;5014837;28;20056;-66
2022/05/31 06:02:03;;;;;;;2.70;0.20;;;12.20;99.90;;;;;;5025613;28;20470;-67
2022/05/31 06:04:41;;;;;;;1.23;0.28;;;12.20;99.90;;;;;;5022489;28;20041;-66
2022/05/31 06:07:24;;;;;;;2.60;0.20;;;12.00;99.90;;;;;;5019909;28;20475;-66
2022/05/31 06:10:00;;;;;;;0.90;0.13;;;11.80;99.90;;;;;;5030960;28;20026;-67
2022/05/31 06:12:33;;;;;;;2.38;0.13;;;11.60;99.90;;;;;;5017158;28;20025;-67
2022/05/31 06:15:08;;;;;;;0.68;0.20;;;11.50;99.90;;;;;;5019442;28;20033;-67
2022/05/31 06:17:44;;;;;;;0.70;0.17;;;11.40;99.90;;;;;;5014624;28;20045;-67
2022/05/31 06:20:12;;;;;;;0.32;0.20;;;11.30;99.90;;;;;;5025904;28;20644;-67
2022/05/31 06:22:42;;;;;;;1.25;0.20;;;11.20;99.90;;;;;;5030180;28;20502;-67
2022/05/31 06:25:13;;;;;;;0.45;0.15;;;11.30;99.90;;;;;;5027867;28;20108;-67
2022/05/31 06:27:40;;;;;;;0.20;0.00;;;11.20;99.90;;;;;;5020925;28;20545;-68
2022/05/31 06:30:08;;;;;;;0.75;0.10;;;11.30;99.90;;;;;;5024537;28;20026;-68
2022/05/31 06:32:36;;;;;;;0.65;0.00;;;11.40;99.90;;;;;;5045239;28;20085;-68
2022/05/31 06:35:03;;;;;;;0.52;0.10;;;11.40;99.90;;;;;;5049132;28;20029;-68
2022/05/31 06:37:30;;;;;;;0.85;0.17;;;11.40;99.90;;;;;;5048118;28;20095;-68
2022/05/31 06:39:58;;;;;;;2.20;0.20;;;11.50;99.90;;;;;;5059734;28;20025;-68
2022/05/31 06:42:25;;;;;;;0.55;0.13;;;11.50;99.90;;;;;;5039864;28;20026;-68
2022/05/31 06:44:53;;;;;;;1.30;0.10;;;11.50;99.90;;;;;;5033376;28;20029;-67
2022/05/31 06:47:20;;;;;;;1.27;0.10;;;11.40;99.90;;;;;;5044706;28;20034;-68
2022/05/31 06:49:47;;;;;;;0.47;0.10;;;11.40;99.90;;;;;;5043713;28;20065;-69
2022/05/31 06:57:47;;;;;;;3.72;0.20;;;11.30;99.90;;;;;;5032260;28;20037;-69
2022/05/31 07:00:18;;;;;;;3.72;0.20;;;11.40;99.90;;;;;;5036810;28;20036;-68
2022/05/31 07:02:47;;;;;;;0.38;0.10;;;11.40;99.90;;;;;;5020604;28;20017;-68
2022/05/31 07:05:14;;;;;;;1.13;0.10;;;11.40;99.90;;;;;;5028441;28;20025;-69
2022/05/31 07:07:42;;;;;;;1.58;0.47;;;11.50;99.90;;;;;;5024675;28;20390;-69
2022/05/31 07:10:10;;;;;;;2.67;0.20;;;11.60;99.90;;;;;;5016419;28;20037;-69
2022/05/31 07:12:40;;;;;;;3.53;0.30;;;11.60;99.90;;;;;;5020138;28;20036;-69
2022/05/31 07:15:08;;;;;;;0.03;0.00;;;11.70;99.90;;;;;;5030286;28;20068;-69
2022/05/31 07:17:35;;;;;;;2.10;0.00;;;11.80;99.90;;;;;;5031079;28;20397;-68
2022/05/31 07:20:08;;;;;;;0.90;0.10;;;11.80;99.90;;;;;;5037159;28;20021;-69
2022/05/31 07:22:37;;;;;;;0.40;0.10;;;11.70;99.90;;;;;;5024496;28;20034;-69
2022/05/31 07:25:05;;;;;;;1.27;0.13;;;11.70;99.90;;;;;;5021202;28;20025;-68
2022/05/31 07:27:33;;;;;;;0.77;0.10;;;11.70;99.90;;;;;;5022084;28;20113;-68
2022/05/31 07:30:01;;;;;;;0.43;0.10;;;11.70;99.90;;;;;;5027356;28;20022;-68
2022/05/31 07:32:28;;;;;;;0.00;0.00;;;11.70;99.90;;;;;;5025654;28;20026;-68
2022/05/31 07:34:55;;;;;;;2.05;0.20;;;11.70;99.90;;;;;;5033930;28;20412;-68
2022/05/31 07:37:23;;;;;;;0.38;0.00;;;11.70;99.90;;;;;;5025292;28;20056;-68
2022/05/31 07:39:50;;;;;;;1.10;0.00;;;11.70;99.90;;;;;;5030739;28;20029;-68
2022/05/31 07:42:17;;;;;;;0.35;0.10;;;11.80;99.90;;;;;;5025651;28;20033;-68
2022/05/31 07:44:44;;;;;;;0.32;0.10;;;11.80;99.90;;;;;;5034783;28;20014;-68
2022/05/31 07:47:12;;;;;;;0.50;0.10;;;11.80;99.90;;;;;;5021825;28;20076;-68
2022/05/31 07:49:39;;;;;;;1.02;0.17;;;11.80;99.90;;;;;;5016231;28;20021;-69
2022/05/31 07:52:10;;;;;;;0.52;0.10;;;11.80;99.90;;;;;;5013976;28;20061;-68
2022/05/31 07:54:39;;;;;;;0.82;0.25;;;11.80;99.90;;;;;;5014421;28;20050;-68
2022/05/31 07:57:06;;;;;;;0.70;0.20;;;11.80;99.90;;;;;;5014238;28;20030;-68
2022/05/31 07:59:35;;;;;;;1.80;0.30;;;11.70;99.90;;;;;;5020102;28;20021;-68
2022/05/31 08:02:03;;;;;;;1.08;0.20;;;11.70;99.90;;;;;;5022625;28;20505;-68
2022/05/31 08:04:31;;;;;;;0.40;0.20;;;11.70;99.90;;;;;;5014625;28;20026;-68
2022/05/31 08:06:59;;;;;;;1.13;0.30;;;11.70;99.90;;;;;;5015350;28;20034;-68
2022/05/31 08:09:27;;;;;;;1.80;0.30;;;11.60;99.90;;;;;;5015899;28;20378;-68
2022/05/31 08:11:54;;;;;;;1.15;0.70;;;11.60;99.90;;;;;;5013754;28;20053;-68
2022/05/31 08:14:22;;;;;;;1.38;0.50;;;11.60;99.90;;;;;;5014368;28;20387;-68
2022/05/31 08:16:51;;;;;;;0.60;0.20;;;11.60;99.90;;;;;;5013704;28;20026;-68
2022/05/31 08:19:19;;;;;;;1.67;0.40;;;11.60;99.90;;;;;;5025710;28;20049;-69
2022/05/31 08:21:46;;;;;;;0.88;0.30;;;11.60;99.90;;;;;;5025454;28;20488;-68
2022/05/31 08:24:14;;;;;;;0.70;0.30;;;11.60;99.90;;;;;;5014914;28;20390;-68
2022/05/31 08:26:41;;;;;;;1.25;0.40;;;11.70;99.90;;;;;;5013612;28;20171;-68
2022/05/31 08:29:08;;;;;;;1.23;0.28;;;11.60;99.90;;;;;;5014023;28;20509;-68
2022/05/31 08:31:36;;;;;;;0.60;0.38;;;11.60;99.90;;;;;;5013254;28;20378;-68
2022/05/31 08:34:05;;;;;;;0.40;0.30;;;11.60;99.90;;;;;;5012983;28;20034;-68
2022/05/31 08:36:33;;;;;;;1.42;0.30;;;11.60;99.90;;;;;;5013769;28;20496;-68
2022/05/31 08:39:01;;;;;;;0.47;0.25;;;11.60;99.90;;;;;;5013895;28;20064;-69
2022/05/31 08:41:39;;;;;;;1.25;0.30;;;11.60;99.90;;;;;;5015579;28;20036;-68
2022/05/31 08:44:12;;;;;;;1.58;0.25;;;11.60;99.90;;;;;;5013039;28;20083;-69
2022/05/31 08:46:54;;;;;;;1.58;0.40;;;11.70;99.90;;;;;;5014030;28;20022;-68
2022/05/31 08:51:52;;;;;;;1.15;0.28;;;11.70;99.90;;;;;;5013844;28;20057;-68
2022/05/31 08:52:20;;;;;;;0.63;0.30;;;11.60;99.90;;;;;;5012403;28;20042;-68
2022/05/31 08:57:50;;;;;;;1.73;0.20;;;11.70;99.90;;;;;;5012422;28;20117;-68
2022/05/31 09:00:23;;;;;;;0.93;0.13;;;11.80;99.90;;;;;;5023580;28;20021;-68
2022/05/31 09:03:12;;;;;;;0.50;0.20;;;11.70;99.90;;;;;;5015058;28;20026;-68
2022/05/31 09:05:53;;;;;;;0.75;0.20;;;11.80;99.90;;;;;;5020203;28;20026;-68
2022/05/31 09:09:05;;;;;;;1.02;0.30;;;11.80;99.90;;;;;;5013101;28;20022;-68
2022/05/31 09:11:46;;;;;;;2.05;0.30;;;11.80;99.90;;;;;;5025084;28;20030;-68
2022/05/31 09:14:23;;;;;;;0.73;0.30;;;11.80;99.90;;;;;;5022945;28;20030;-68
2022/05/31 09:17:22;;;;;;;2.63;0.22;;;11.70;99.90;;;;;;5022952;28;20390;-68
2022/05/31 09:19:58;;;;;;;4.72;0.30;;;11.70;99.90;;;;;;5047026;28;20048;-68
2022/05/31 09:22:26;;;;;;;1.17;0.28;;;11.60;99.90;;;;;;5019892;28;20034;-68
2022/05/31 09:24:53;;;;;;;0.57;0.20;;;11.60;99.90;;;;;;5035131;28;20048;-68
2022/05/31 09:27:42;;;;;;;1.58;0.57;;;11.60;99.90;;;;;;5018759;28;20040;-68
2022/05/31 09:30:10;;;;;;;1.65;0.30;;;11.60;99.90;;;;;;5035760;28;20033;-68
2022/05/31 09:33:04;;;;;;;0.80;0.40;;;11.60;99.90;;;;;;5029931;28;20425;-69
2022/05/31 09:35:40;;;;;;;1.27;0.40;;;11.60;99.90;;;;;;5033702;28;20040;-68
2022/05/31 09:38:42;;;;;;;1.05;0.40;;;11.50;99.90;;;;;;5026812;28;20080;-68
2022/05/31 09:41:34;;;;;;;4.05;0.30;;;11.40;99.90;;;;;;5025133;28;20447;-68
2022/05/31 09:44:29;;;;;;;1.48;0.20;;;11.40;99.90;;;;;;5030345;28;20096;-69
2022/05/31 09:47:06;;;;;;;0.88;0.28;;;11.30;99.90;;;;;;5022253;28;20026;-69
2022/05/31 09:49:41;;;;;;;2.75;0.50;;;11.40;99.90;;;;;;5035126;28;20381;-69
2022/05/31 09:52:20;;;;;;;2.10;0.40;;;11.50;99.90;;;;;;5032507;28;20034;-69
2022/05/31 09:58:14;;;;;;;0.93;0.40;;;11.60;99.90;;;;;;5027148;28;20040;-68
2022/05/31 10:01:13;;;;;;;1.50;0.52;;;11.60;99.90;;;;;;5047132;28;20037;-68
2022/05/31 10:03:48;;;;;;;0.93;0.30;;;11.60;99.90;;;;;;5038129;28;20061;-69
2022/05/31 10:06:22;;;;;;;2.28;0.55;;;11.80;99.90;;;;;;5044283;28;20025;-69
2022/05/31 10:08:51;;;;;;;;;;;11.90;99.90;;;;;;5031989;28;20032;-69
2022/05/31 10:11:48;;;;;;;1.55;0.60;;;12.00;99.90;;;;;;5054055;28;20289;-72
2022/05/31 10:14:26;;;;;;;3.45;0.65;;;12.00;99.90;;;;;;5032887;28;20045;-70
2022/05/31 10:16:55;;;;;;;1.23;0.50;;;12.00;99.90;;;;;;5038716;28;20034;-68
2022/05/31 10:19:48;;;;;;;3.67;0.30;;;12.10;99.90;;;;;;5038690;28;20040;-70
2022/05/31 10:22:21;;;;;;;0.40;0.10;;;12.10;99.90;;;;;;5028757;28;20038;-70
2022/05/31 10:24:51;;;;;;;1.48;0.30;;;12.10;99.90;;;;;;5020858;28;20049;-71
2022/05/31 10:27:26;;;;;;;2.90;0.20;;;12.10;99.90;;;;;;5039213;28;20039;-69
2022/05/31 10:30:01;;;;;;;1.67;0.20;;;12.00;99.90;;;;;;5035195;28;20060;-68
2022/05/31 10:32:28;;;;;;;;;;;12.00;99.90;;;;;;5038036;28;20084;-69
2022/05/31 10:35:16;;;;;;;3.50;0.20;;;12.00;99.90;;;;;;5057352;28;19924;-68
2022/05/31 10:38:04;;;;;;;0.40;0.10;;;12.00;99.90;;;;;;5034488;28;20030;-69
2022/05/31 10:40:37;;;;;;;0.25;0.10;;;12.00;99.90;;;;;;5033787;28;20022;-68
2022/05/31 10:43:20;;;;;;;0.60;0.20;;;11.90;99.90;;;;;;5072383;28;20043;-68
2022/05/31 10:45:47;;;;;;;1.67;0.25;;;11.90;99.90;;;;;;5037959;28;20056;-68
2022/05/31 10:48:14;;;;;;;1.13;0.20;;;11.90;99.90;;;;;;5044253;28;20029;-68
2022/05/31 10:51:27;;;;;;;1.23;0.20;;;11.90;99.90;;;;;;5032889;28;20029;-68
2022/05/31 10:53:55;;;;;;;1.58;0.13;;;11.90;99.90;;;;;;5045329;28;20051;-69
2022/05/31 10:56:36;;;;;;;2.70;0.50;;;11.90;99.90;;;;;;5051007;28;20029;-68
2022/05/31 10:59:16;;;;;;;2.67;0.95;;;11.90;99.90;;;;;;5037822;28;20026;-68
2022/05/31 11:01:49;;;;;;;0.63;0.17;;;11.80;99.90;;;;;;5033520;28;20053;-69
2022/05/31 11:04:19;;;;;;;1.88;0.20;;;11.80;99.90;;;;;;5040364;28;20017;-69
2022/05/31 11:07:09;;;;;;;0.52;0.10;;;11.80;99.90;;;;;;5051284;28;20022;-68
2022/05/31 11:12:42;;;;;;;2.65;0.30;;;11.80;99.90;;;;;;5041935;28;20043;-68
2022/05/31 11:15:33;;;;;;;3.03;0.20;;;11.80;99.90;;;;;;5046738;28;20509;-70
2022/05/31 11:18:28;;;;;;;1.73;0.10;;;11.80;99.90;;;;;;5031262;28;20067;-69
2022/05/31 11:21:28;;;;;;;0.75;0.20;;;11.90;99.90;;;;;;5021676;28;20106;-68
2022/05/31 11:24:21;;;;;;;2.08;0.10;;;12.00;99.90;;;;;;5018488;28;20123;-68
2022/05/31 11:27:17;;;;;;;0.57;0.10;;;12.00;99.90;;;;;;5032645;28;20033;-69
2022/05/31 11:30:04;;;;;;;1.38;0.20;;;12.00;99.90;;;;;;5025399;28;20045;-70
2022/05/31 11:32:47;;;;;;;1.55;0.20;;;12.00;99.90;;;;;;5036589;28;20485;-69
2022/05/31 11:35:38;;;;;;;1.48;0.30;;;11.90;99.90;;;;;;5037268;28;20040;-69
2022/05/31 11:38:13;;;;;;;0.40;0.20;;;11.90;99.90;;;;;;5038175;28;20040;-69
2022/05/31 11:40:58;;;;;;;2.63;0.13;;;11.90;99.90;;;;;;5028860;28;20021;-69
2022/05/31 11:43:43;;;;;;;0.88;0.30;;;11.90;99.90;;;;;;5048159;28;20040;-70
2022/05/31 11:46:26;;;;;;;2.30;0.20;;;11.90;99.90;;;;;;5055898;28;20028;-70
2022/05/31 11:49:01;;;;;;;1.38;0.43;;;11.80;99.90;;;;;;5041003;28;20085;-69
2022/05/31 11:51:34;;;;;;;2.15;0.20;;;11.80;99.90;;;;;;5044334;28;20033;-69
2022/05/31 11:54:05;;;;;;;1.27;0.20;;;11.70;99.90;;;;;;5040181;28;20145;-69
2022/05/31 11:56:44;;;;;;;0.70;0.10;;;11.80;99.90;;;;;;5032543;28;20057;-69
2022/05/31 11:59:20;;;;;;;0.93;0.10;;;11.80;99.90;;;;;;5041772;28;20006;-70
2022/05/31 12:01:54;;;;;;;2.80;0.30;;;11.80;99.90;;;;;;5048375;28;20072;-67
2022/05/31 12:04:26;;;;;;;2.83;0.38;;;11.80;99.90;;;;;;5043827;28;20046;-68
2022/05/31 12:07:02;;;;;;;2.97;0.32;;;11.80;99.90;;;;;;5040673;28;20044;-69
2022/05/31 12:09:43;;;;;;;0.93;0.20;;;11.80;99.90;;;;;;5048327;28;20025;-69
2022/05/31 12:12:34;;;;;;;1.65;0.13;;;11.70;99.90;;;;;;5043718;28;20026;-68
2022/05/31 12:15:23;;;;;;;1.70;0.40;;;11.70;99.90;;;;;;5019964;28;20038;-68
2022/05/31 12:17:59;;;;;;;0.90;0.17;;;11.70;99.90;;;;;;5019249;28;20041;-69
2022/05/31 12:20:38;;;;;;;1.55;0.10;;;11.70;99.90;;;;;;5045331;28;20048;-68
2022/05/31 12:23:15;;;;;;;1.40;0.13;;;11.60;99.90;;;;;;5024151;28;20573;-68
2022/05/31 12:25:47;;;;;;;2.20;0.20;;;11.70;99.90;;;;;;5019306;28;20026;-69
2022/05/31 12:28:21;;;;;;;3.70;0.20;;;11.60;99.90;;;;;;5024103;28;20516;-68
2022/05/31 12:31:13;;;;;;;1.85;0.15;;;11.60;99.90;;;;;;5029197;28;20108;-69
2022/05/31 12:33:44;;;;;;;2.88;0.50;;;11.70;99.90;;;;;;5023553;28;20042;-68
2022/05/31 12:36:35;;;;;;;1.83;0.25;;;11.70;99.90;;;;;;5031242;28;20098;-68
2022/05/31 12:39:08;;;;;;;2.30;0.20;;;11.70;99.90;;;;;;5026039;28;20034;-68
2022/05/31 12:41:45;;;;;;;0.80;0.20;;;11.70;99.90;;;;;;5028092;28;20043;-68
2022/05/31 12:44:36;;;;;;;0.70;0.20;;;11.70;99.90;;;;;;5045016;28;20398;-68
2022/05/31 12:47:33;;;;;;;1.30;0.17;;;11.60;99.90;;;;;;5029162;28;20096;-68
2022/05/31 12:50:04;;;;;;;2.20;0.15;;;11.60;99.90;;;;;;5046285;28;20029;-67
2022/05/31 12:55:01;;;;;;;2.20;0.20;;;11.70;99.90;;;;;;5023144;28;20137;-68
2022/05/31 13:00:34;;;;;;;2.30;0.25;;;11.70;99.90;;;;;;5029363;28;20076;-68
2022/05/31 13:03:05;;;;;;;8.43;0.25;;;11.60;99.90;;;;;;5025778;28;20096;-67
2022/05/31 13:05:37;;;;;;;1.00;0.20;;;11.60;99.90;;;;;;5033551;28;20485;-69
2022/05/31 13:08:18;;;;;;;1.10;0.10;;;11.60;99.90;;;;;;5030562;28;20030;-68
2022/05/31 13:19:35;;;;;;;1.10;0.50;;;11.50;99.90;;;;;;5035752;28;20045;-69
2022/05/31 13:22:17;;;;;;;2.10;0.20;;;11.50;99.90;;;;;;5025109;28;20026;-67
2022/05/31 13:25:04;;;;;;;1.13;0.13;;;11.40;99.90;;;;;;5040276;28;20601;-68
2022/05/31 13:27:37;;;;;;;1.63;0.85;;;11.40;99.90;;;;;;5028897;28;20029;-68
2022/05/31 13:30:04;;;;;;;0.10;0.10;;;11.40;99.90;;;;;;5029832;28;20018;-68
2022/05/31 13:32:36;;;;;;;2.15;0.20;;;11.40;99.90;;;;;;5023720;28;20041;-68
2022/05/31 13:35:09;;;;;;;14.48;0.30;;;11.40;99.90;;;;;;5044534;28;20129;-68
2022/05/31 13:37:49;;;;;;;5.40;0.40;;;11.40;99.90;;;;;;5024046;28;20025;-67
2022/05/31 13:40:22;;;;;;;1.50;0.25;;;11.30;99.90;;;;;;5033554;28;20047;-68
2022/05/31 13:42:50;;;;;;;2.53;0.10;;;11.20;99.90;;;;;;5039338;28;20021;-68
2022/05/31 13:45:24;;;;;;;1.65;0.20;;;11.20;99.90;;;;;;5035383;28;20037;-68
2022/05/31 13:48:02;;;;;;;1.75;0.10;;;11.20;99.90;;;;;;5036657;28;20021;-69
2022/05/31 13:50:38;;;;;;;2.25;0.32;;;11.10;99.90;;;;;;5031088;28;20124;-68